Time;durP1;ratioP1;P1;durP2;ratioP2;P2;SDS_P1;SDS_P2;PMS_P1;PMS_P2;Temp;Humidity;BMP_temperature;BMP_pressure;BME280_temperature;BME280_humidity;BME280_pressure;Samples;Min_cycle;Max_cycle;Signal;HPM_P1;HPM_P2
2024/02/28 00:00:59;;;;;;;18.30;13.10;;;7.30;70.80;;;;;;5093340;28;20182;-68
2024/02/28 00:03:28;;;;;;;15.52;11.85;;;7.30;71.20;;;;;;5093536;28;20211;-68
2024/02/28 00:05:58;;;;;;;19.63;13.40;;;7.30;70.80;;;;;;5093921;28;20188;-69
2024/02/28 00:08:26;;;;;;;17.83;12.77;;;7.30;70.90;;;;;;5093765;28;20635;-69
2024/02/28 00:10:53;;;;;;;16.38;13.65;;;7.30;70.90;;;;;;5071421;28;20209;-68
2024/02/28 00:13:22;;;;;;;17.35;12.23;;;7.30;71.40;;;;;;5086952;28;20544;-68
2024/02/28 00:15:49;;;;;;;17.85;12.50;;;7.40;71.30;;;;;;5093494;28;20630;-68
2024/02/28 00:18:19;;;;;;;17.80;11.68;;;7.40;71.40;;;;;;5093767;28;20217;-68
2024/02/28 00:20:46;;;;;;;21.02;12.75;;;7.40;71.30;;;;;;5093500;28;20201;-68
2024/02/28 00:23:15;;;;;;;15.65;11.30;;;7.40;71.00;;;;;;5092951;28;20272;-68
2024/02/28 00:25:45;;;;;;;17.40;13.27;;;7.50;71.30;;;;;;5093561;28;20250;-68
2024/02/28 00:28:12;;;;;;;18.92;13.45;;;7.50;70.80;;;;;;5093631;28;20208;-68
2024/02/28 00:30:44;;;;;;;18.17;12.23;;;7.50;71.00;;;;;;5093530;28;20193;-68
2024/02/28 00:33:12;;;;;;;19.42;12.90;;;7.50;70.90;;;;;;5073050;28;20183;-68
2024/02/28 00:35:41;;;;;;;18.98;13.18;;;7.60;70.80;;;;;;5073840;28;20190;-68
2024/02/28 00:38:10;;;;;;;24.13;13.63;;;7.50;70.10;;;;;;5073454;28;20217;-68
2024/02/28 00:40:38;;;;;;;23.55;13.82;;;7.50;70.10;;;;;;5072871;28;20201;-68
2024/02/28 00:43:06;;;;;;;18.58;12.82;;;7.50;70.60;;;;;;5073303;28;20229;-68
2024/02/28 00:45:33;;;;;;;16.38;12.80;;;7.50;70.50;;;;;;5073896;28;20182;-68
2024/02/28 00:48:02;;;;;;;18.65;12.38;;;7.50;70.40;;;;;;5072952;28;20669;-68
2024/02/28 00:50:31;;;;;;;18.73;13.85;;;7.60;70.50;;;;;;5075497;28;20288;-68
2024/02/28 00:52:58;;;;;;;18.60;12.70;;;7.60;70.40;;;;;;5093140;28;20624;-68
2024/02/28 00:55:25;;;;;;;16.70;11.63;;;7.60;70.60;;;;;;5092633;28;20200;-68
2024/02/28 00:57:54;;;;;;;21.77;13.52;;;7.60;71.00;;;;;;5093250;28;20217;-68
2024/02/28 01:00:21;;;;;;;19.60;12.00;;;7.70;70.80;;;;;;5093749;28;20272;-68
2024/02/28 01:02:49;;;;;;;16.35;13.27;;;7.70;70.90;;;;;;5093410;28;20217;-68
2024/02/28 01:05:18;;;;;;;18.13;12.02;;;7.70;70.80;;;;;;5084662;28;20198;-68
2024/02/28 01:07:47;;;;;;;16.75;12.10;;;7.60;71.00;;;;;;5073553;28;20252;-68
2024/02/28 01:10:14;;;;;;;21.73;15.18;;;7.50;71.40;;;;;;5093312;28;20254;-68
2024/02/28 01:12:42;;;;;;;18.40;12.20;;;7.60;71.60;;;;;;5071436;28;20297;-69
2024/02/28 01:15:10;;;;;;;19.75;12.38;;;7.60;71.80;;;;;;5087255;28;20194;-68
2024/02/28 01:17:37;;;;;;;17.92;12.90;;;7.70;71.30;;;;;;5085461;28;20186;-69
2024/02/28 01:20:07;;;;;;;17.13;12.23;;;7.70;71.60;;;;;;5077574;28;20585;-69
2024/02/28 01:22:34;;;;;;;20.23;11.88;;;7.70;71.70;;;;;;5093401;28;20229;-69
2024/02/28 01:25:01;;;;;;;19.02;13.05;;;7.70;72.00;;;;;;5090389;28;20542;-68
2024/02/28 01:27:36;;;;;;;18.77;11.55;;;7.70;72.10;;;;;;5093551;28;20585;-68
2024/02/28 01:30:05;;;;;;;17.95;12.77;;;7.80;72.20;;;;;;5092025;28;20206;-68
2024/02/28 01:32:33;;;;;;;20.58;11.60;;;7.70;72.20;;;;;;5092848;28;20193;-68
2024/02/28 01:35:00;;;;;;;14.02;11.30;;;7.70;72.40;;;;;;5092964;28;20599;-69
2024/02/28 01:37:33;;;;;;;17.67;12.65;;;7.70;72.70;;;;;;5073378;28;20205;-68
2024/02/28 01:39:59;;;;;;;14.50;11.60;;;7.70;73.40;;;;;;5072761;28;20252;-68
2024/02/28 01:42:32;;;;;;;17.90;12.10;;;7.70;72.60;;;;;;5080760;28;20249;-68
2024/02/28 01:45:04;;;;;;;17.70;12.70;;;7.70;72.40;;;;;;5077502;28;20694;-68
2024/02/28 01:47:33;;;;;;;17.30;11.57;;;7.70;72.40;;;;;;5072869;28;20591;-68
2024/02/28 01:50:05;;;;;;;17.98;11.18;;;7.70;72.50;;;;;;5072784;28;20190;-69
2024/02/28 01:52:34;;;;;;;18.02;12.95;;;7.80;72.60;;;;;;5073222;28;20210;-68
2024/02/28 01:55:06;;;;;;;20.80;12.95;;;7.80;72.40;;;;;;5073147;28;20194;-68
2024/02/28 01:57:34;;;;;;;20.88;12.18;;;7.80;72.30;;;;;;5073014;28;20178;-68
2024/02/28 02:00:02;;;;;;;17.20;12.35;;;7.80;72.20;;;;;;5072869;28;20222;-68
2024/02/28 02:02:29;;;;;;;15.65;11.57;;;7.80;72.50;;;;;;5072902;28;20206;-68
2024/02/28 02:04:58;;;;;;;20.00;12.52;;;7.80;72.60;;;;;;5072710;28;20190;-68
2024/02/28 02:07:25;;;;;;;20.00;13.13;;;7.80;73.10;;;;;;5075325;28;20190;-68
2024/02/28 02:09:53;;;;;;;14.23;11.20;;;7.80;73.00;;;;;;5076227;28;20198;-68
2024/02/28 02:12:22;;;;;;;17.23;12.43;;;7.80;73.20;;;;;;5076520;28;20255;-68
2024/02/28 02:14:49;;;;;;;20.35;13.45;;;7.80;73.30;;;;;;5076207;28;20222;-68
2024/02/28 02:17:16;;;;;;;17.33;11.55;;;7.80;73.40;;;;;;5076403;28;20198;-68
2024/02/28 02:19:49;;;;;;;18.40;13.68;;;7.90;73.20;;;;;;5076401;28;20301;-68
2024/02/28 02:22:19;;;;;;;16.00;11.68;;;7.90;73.10;;;;;;5076392;28;20186;-68
2024/02/28 02:24:48;;;;;;;15.63;10.45;;;7.90;73.00;;;;;;5076062;28;20270;-68
2024/02/28 02:27:21;;;;;;;19.65;12.82;;;7.90;72.90;;;;;;5076472;28;20229;-68
2024/02/28 02:29:48;;;;;;;17.60;11.68;;;7.90;72.70;;;;;;5076246;28;20284;-68
2024/02/28 02:32:17;;;;;;;20.70;13.25;;;7.90;72.40;;;;;;5076276;28;20285;-68
2024/02/28 02:34:44;;;;;;;14.98;10.88;;;7.90;72.50;;;;;;5075822;28;20200;-68
2024/02/28 02:37:11;;;;;;;17.52;13.55;;;7.90;72.80;;;;;;5076141;28;20271;-68
2024/02/28 02:39:39;;;;;;;18.73;12.27;;;7.80;72.90;;;;;;5076012;28;20297;-68
2024/02/28 02:42:07;;;;;;;17.75;13.10;;;7.90;73.10;;;;;;5075721;28;20276;-68
2024/02/28 02:44:35;;;;;;;16.92;11.43;;;7.90;73.10;;;;;;5075974;28;20267;-68
2024/02/28 02:47:02;;;;;;;17.30;12.32;;;7.90;73.00;;;;;;5075949;28;20190;-68
2024/02/28 02:49:29;;;;;;;17.83;11.90;;;7.80;73.00;;;;;;5075605;28;20234;-68
2024/02/28 02:52:01;;;;;;;14.75;10.43;;;7.90;73.20;;;;;;5075844;28;20285;-68
2024/02/28 02:54:28;;;;;;;18.08;13.05;;;7.90;73.10;;;;;;5075994;28;20225;-68
2024/02/28 02:56:55;;;;;;;16.10;11.40;;;7.90;73.40;;;;;;5075479;28;20201;-68
2024/02/28 02:59:23;;;;;;;21.98;14.07;;;7.90;73.50;;;;;;5075341;28;20236;-68
2024/02/28 03:01:55;;;;;;;19.65;13.25;;;7.90;73.50;;;;;;5075643;28;20278;-68
2024/02/28 03:04:22;;;;;;;19.92;12.68;;;8.00;73.30;;;;;;5075637;28;20269;-68
2024/02/28 03:06:54;;;;;;;17.30;12.30;;;7.90;73.10;;;;;;5075645;28;20592;-68
2024/02/28 03:09:21;;;;;;;19.50;12.55;;;7.90;73.00;;;;;;5075790;28;20604;-68
2024/02/28 03:11:48;;;;;;;21.58;15.70;;;7.90;73.10;;;;;;5075260;28;20637;-68
2024/02/28 03:14:15;;;;;;;17.98;11.65;;;7.90;73.20;;;;;;5075485;28;20194;-68
2024/02/28 03:16:50;;;;;;;15.02;11.90;;;7.90;73.30;;;;;;5075394;28;20243;-68
2024/02/28 03:19:17;;;;;;;18.13;11.73;;;8.00;73.30;;;;;;5074479;28;20244;-68
2024/02/28 03:21:44;;;;;;;19.73;12.15;;;8.00;73.30;;;;;;5075244;28;20241;-68
2024/02/28 03:24:11;;;;;;;15.15;10.95;;;8.00;73.70;;;;;;5074962;28;20194;-68
2024/02/28 03:26:38;;;;;;;18.65;11.30;;;8.10;73.50;;;;;;5074858;28;20194;-68
2024/02/28 03:29:05;;;;;;;18.25;11.68;;;8.10;73.60;;;;;;5074857;28;20198;-68
2024/02/28 03:31:33;;;;;;;15.95;11.70;;;8.10;73.50;;;;;;5074773;28;20289;-68
2024/02/28 03:34:01;;;;;;;16.90;11.13;;;8.10;73.90;;;;;;5074727;28;20194;-68
2024/02/28 03:36:36;;;;;;;17.35;11.80;;;8.10;74.10;;;;;;5074716;28;20229;-68
2024/02/28 03:39:06;;;;;;;15.65;12.57;;;8.10;73.90;;;;;;5074599;28;20762;-68
2024/02/28 03:41:33;;;;;;;15.32;12.18;;;8.10;73.30;;;;;;5074766;28;20221;-68
2024/02/28 03:44:00;;;;;;;16.42;11.82;;;8.10;73.50;;;;;;5074629;28;20186;-68
2024/02/28 03:46:31;;;;;;;18.55;11.38;;;8.10;73.60;;;;;;5074857;28;20551;-68
2024/02/28 03:48:58;;;;;;;15.63;12.25;;;8.10;74.00;;;;;;5074523;28;20269;-70
2024/02/28 03:51:27;;;;;;;16.00;12.25;;;8.10;73.90;;;;;;5074652;28;20194;-68
2024/02/28 03:53:54;;;;;;;18.83;11.98;;;8.10;74.10;;;;;;5074303;28;20198;-68
2024/02/28 03:56:25;;;;;;;17.13;11.35;;;8.10;73.70;;;;;;5074278;28;20656;-68
2024/02/28 03:58:52;;;;;;;17.92;12.48;;;8.10;73.70;;;;;;5074492;28;20214;-68
2024/02/28 04:01:19;;;;;;;17.98;11.23;;;8.10;73.90;;;;;;5074485;28;20259;-68
2024/02/28 04:03:47;;;;;;;20.55;13.05;;;8.10;73.90;;;;;;5074491;28;20290;-68
2024/02/28 04:06:14;;;;;;;21.08;13.07;;;8.00;74.00;;;;;;5074113;28;20190;-68
2024/02/28 04:08:43;;;;;;;17.45;12.68;;;8.00;73.90;;;;;;5074081;28;20280;-68
2024/02/28 04:11:10;;;;;;;16.15;11.55;;;8.00;74.20;;;;;;5074005;28;20648;-68
2024/02/28 04:13:38;;;;;;;17.10;12.48;;;8.10;74.40;;;;;;5074312;28;20190;-68
2024/02/28 04:16:05;;;;;;;16.23;12.40;;;8.10;74.30;;;;;;5074208;28;20280;-68
2024/02/28 04:18:34;;;;;;;17.15;13.30;;;8.10;74.30;;;;;;5073876;28;20204;-68
2024/02/28 04:21:01;;;;;;;16.35;11.75;;;8.10;74.50;;;;;;5074071;28;20198;-68
2024/02/28 04:23:33;;;;;;;19.33;12.05;;;8.10;74.50;;;;;;5074169;28;20222;-68
2024/02/28 04:26:01;;;;;;;20.08;14.40;;;8.10;74.40;;;;;;5074135;28;20236;-68
2024/02/28 04:28:32;;;;;;;18.30;13.00;;;8.10;74.40;;;;;;5074091;28;20245;-68
2024/02/28 04:31:00;;;;;;;16.52;12.02;;;8.10;74.50;;;;;;5073638;28;20232;-68
2024/02/28 04:33:27;;;;;;;17.90;12.85;;;8.10;74.50;;;;;;5073957;28;20222;-68
2024/02/28 04:35:54;;;;;;;18.38;12.23;;;8.00;74.50;;;;;;5073896;28;20194;-68
2024/02/28 04:38:27;;;;;;;21.75;12.00;;;8.00;74.70;;;;;;5073896;28;20258;-69
2024/02/28 04:40:54;;;;;;;17.95;11.02;;;8.10;74.90;;;;;;5073745;28;20207;-68
2024/02/28 04:43:22;;;;;;;16.73;12.18;;;8.10;75.00;;;;;;5074015;28;20265;-68
2024/02/28 04:45:49;;;;;;;16.77;12.45;;;8.10;75.20;;;;;;5073483;28;20220;-68
2024/02/28 04:48:17;;;;;;;18.05;13.10;;;8.10;75.00;;;;;;5073872;28;20362;-68
2024/02/28 04:50:44;;;;;;;17.98;12.50;;;8.00;75.00;;;;;;5073682;28;20197;-68
2024/02/28 04:53:12;;;;;;;19.00;14.15;;;8.00;75.20;;;;;;5073734;28;20228;-68
2024/02/28 04:55:40;;;;;;;18.88;12.82;;;8.00;75.00;;;;;;5073368;28;20186;-68
2024/02/28 04:58:07;;;;;;;18.80;13.00;;;8.00;75.10;;;;;;5073686;28;20617;-68
2024/02/28 05:00:35;;;;;;;17.08;12.82;;;8.00;74.90;;;;;;5073568;28;20249;-68
2024/02/28 05:03:02;;;;;;;18.40;12.40;;;8.00;74.70;;;;;;5073324;28;20201;-68
2024/02/28 05:05:30;;;;;;;18.30;12.23;;;8.00;74.90;;;;;;5073580;28;20226;-68
2024/02/28 05:07:57;;;;;;;17.33;12.32;;;8.00;75.10;;;;;;5073700;28;20263;-68
2024/02/28 05:10:24;;;;;;;15.50;11.52;;;8.00;75.20;;;;;;5073254;28;20272;-68
2024/02/28 05:12:51;;;;;;;17.08;12.48;;;8.00;75.40;;;;;;5073619;28;20593;-68
2024/02/28 05:15:19;;;;;;;17.20;13.48;;;8.00;75.50;;;;;;5073550;28;20247;-69
2024/02/28 05:17:51;;;;;;;17.05;11.95;;;8.00;75.20;;;;;;5073583;28;20194;-68
2024/02/28 05:20:18;;;;;;;15.13;12.13;;;8.00;75.10;;;;;;5073198;28;20238;-68
2024/02/28 05:22:45;;;;;;;15.45;11.77;;;8.00;75.50;;;;;;5073468;28;20190;-68
2024/02/28 05:25:13;;;;;;;18.45;13.63;;;8.00;75.60;;;;;;5073139;28;20221;-68
2024/02/28 05:27:40;;;;;;;18.42;13.20;;;8.00;75.50;;;;;;5073127;28;20693;-68
2024/02/28 05:30:13;;;;;;;16.08;12.52;;;8.00;75.60;;;;;;5073208;28;20202;-68
2024/02/28 05:32:40;;;;;;;18.85;14.20;;;8.10;75.70;;;;;;5073123;28;20629;-68
2024/02/28 05:35:11;;;;;;;16.30;12.02;;;8.00;75.60;;;;;;5073020;28;20239;-68
2024/02/28 05:37:42;;;;;;;19.77;12.88;;;8.10;75.80;;;;;;5073403;28;20198;-68
2024/02/28 05:40:12;;;;;;;16.98;12.30;;;8.10;75.60;;;;;;5073325;28;20293;-68
2024/02/28 05:42:39;;;;;;;18.85;12.32;;;8.10;75.40;;;;;;5075886;28;20271;-68
2024/02/28 05:45:10;;;;;;;16.60;12.38;;;8.10;75.70;;;;;;5077309;28;20186;-68
2024/02/28 05:47:37;;;;;;;16.67;12.07;;;8.00;75.90;;;;;;5076893;28;20175;-68
2024/02/28 05:50:12;;;;;;;16.75;12.60;;;8.00;75.90;;;;;;5077044;28;20200;-68
2024/02/28 05:52:43;;;;;;;19.05;11.63;;;8.00;76.00;;;;;;5077132;28;20186;-68
2024/02/28 05:55:13;;;;;;;19.40;13.68;;;8.00;76.00;;;;;;5077020;28;20178;-68
2024/02/28 05:57:45;;;;;;;25.15;12.82;;;8.00;76.30;;;;;;5076862;28;20551;-68
2024/02/28 06:00:14;;;;;;;18.95;13.07;;;8.00;76.10;;;;;;5076838;28;20210;-68
2024/02/28 06:02:42;;;;;;;17.48;11.98;;;8.10;76.10;;;;;;5077036;28;20536;-68
2024/02/28 06:05:11;;;;;;;17.83;11.13;;;8.10;75.90;;;;;;5076558;28;20194;-69
2024/02/28 06:07:39;;;;;;;17.20;12.65;;;8.10;76.10;;;;;;5076762;28;20187;-68
2024/02/28 06:10:14;;;;;;;19.92;13.00;;;8.10;76.20;;;;;;5076697;28;20280;-68
2024/02/28 06:12:47;;;;;;;18.35;12.90;;;8.10;76.50;;;;;;5076711;28;20178;-68
2024/02/28 06:15:16;;;;;;;17.52;11.32;;;8.10;76.50;;;;;;5076676;28;20213;-68
2024/02/28 06:17:43;;;;;;;13.70;9.98;;;8.10;76.50;;;;;;5074712;28;20652;-68
2024/02/28 06:20:12;;;;;;;16.40;10.90;;;8.10;76.50;;;;;;5075770;28;20207;-69
2024/02/28 06:22:41;;;;;;;18.33;12.35;;;8.20;76.40;;;;;;5076489;28;20209;-68
2024/02/28 06:25:17;;;;;;;17.23;12.10;;;8.20;76.40;;;;;;5076230;28;20198;-68
2024/02/28 06:27:44;;;;;;;17.20;12.57;;;8.20;76.40;;;;;;5075753;28;20595;-68
2024/02/28 06:30:13;;;;;;;17.98;13.57;;;8.10;76.30;;;;;;5076098;28;20252;-68
2024/02/28 06:32:40;;;;;;;18.50;14.20;;;8.20;76.70;;;;;;5075318;28;20636;-68
2024/02/28 06:35:09;;;;;;;21.40;13.90;;;8.20;76.90;;;;;;5075728;28;20280;-68
2024/02/28 06:37:37;;;;;;;17.05;12.43;;;8.20;77.00;;;;;;5075783;28;20229;-68
2024/02/28 06:40:05;;;;;;;17.80;13.73;;;8.20;77.20;;;;;;5075699;28;20284;-68
2024/02/28 06:42:32;;;;;;;19.55;14.35;;;8.20;77.70;;;;;;5092709;28;20218;-68
2024/02/28 06:44:59;;;;;;;21.77;14.48;;;8.20;78.00;;;;;;5075753;28;20189;-68
2024/02/28 06:47:27;;;;;;;18.25;13.07;;;8.20;77.90;;;;;;5075474;28;20595;-68
2024/02/28 06:49:54;;;;;;;20.13;13.90;;;8.20;78.30;;;;;;5075915;28;20584;-68
2024/02/28 06:52:21;;;;;;;24.70;14.57;;;8.20;78.50;;;;;;5075112;28;20221;-68
2024/02/28 06:54:49;;;;;;;25.48;13.18;;;8.20;78.10;;;;;;5074686;28;20191;-68
2024/02/28 06:57:16;;;;;;;18.23;12.80;;;8.20;78.60;;;;;;5075917;28;20319;-68
2024/02/28 06:59:43;;;;;;;18.13;13.38;;;8.20;79.00;;;;;;5074963;28;20252;-68
2024/02/28 07:02:10;;;;;;;19.00;12.48;;;8.30;80.30;;;;;;5075528;28;20198;-68
2024/02/28 07:04:38;;;;;;;17.42;11.98;;;8.30;79.40;;;;;;5074683;28;20194;-68
2024/02/28 07:07:05;;;;;;;19.90;13.25;;;8.30;79.40;;;;;;5074695;28;20182;-68
2024/02/28 07:09:33;;;;;;;18.02;13.57;;;8.30;79.80;;;;;;5074877;28;20682;-68
2024/02/28 07:12:01;;;;;;;17.30;13.60;;;8.30;80.00;;;;;;5079497;28;20289;-68
2024/02/28 07:14:28;;;;;;;17.50;13.25;;;8.30;80.10;;;;;;5079163;28;20183;-68
2024/02/28 07:16:55;;;;;;;20.58;13.85;;;8.30;80.20;;;;;;5074798;28;20675;-68
2024/02/28 07:19:22;;;;;;;17.45;12.32;;;8.30;80.30;;;;;;5075118;28;20194;-68
2024/02/28 07:21:49;;;;;;;19.60;13.88;;;8.30;80.10;;;;;;5074684;28;20243;-68
2024/02/28 07:24:16;;;;;;;16.40;13.20;;;8.30;80.40;;;;;;5074742;28;20602;-68
2024/02/28 07:26:43;;;;;;;17.85;12.82;;;8.30;80.40;;;;;;5074905;28;20194;-68
2024/02/28 07:29:12;;;;;;;19.27;14.25;;;8.30;80.50;;;;;;5074608;28;20225;-68
2024/02/28 07:31:40;;;;;;;21.67;15.30;;;8.20;80.40;;;;;;5074947;28;20587;-68
2024/02/28 07:34:08;;;;;;;18.65;13.82;;;8.20;80.80;;;;;;5074883;28;20671;-68
2024/02/28 07:36:34;;;;;;;21.67;14.95;;;8.20;81.20;;;;;;5074690;28;20252;-68
2024/02/28 07:39:02;;;;;;;26.17;15.45;;;8.20;81.30;;;;;;5074782;28;20277;-68
2024/02/28 07:41:29;;;;;;;20.70;15.20;;;8.20;81.30;;;;;;5074237;28;20230;-68
2024/02/28 07:43:56;;;;;;;19.13;15.80;;;8.20;81.30;;;;;;5074632;28;20544;-68
2024/02/28 07:46:25;;;;;;;23.20;17.15;;;8.30;82.00;;;;;;5074327;28;20675;-68
2024/02/28 07:48:52;;;;;;;21.30;15.13;;;8.30;82.00;;;;;;5074211;28;20281;-68
2024/02/28 07:51:19;;;;;;;21.75;15.63;;;8.30;81.90;;;;;;5074542;28;20197;-67
2024/02/28 07:53:46;;;;;;;22.98;16.20;;;8.30;82.00;;;;;;5074413;28;20206;-68
2024/02/28 07:56:18;;;;;;;23.60;15.35;;;8.20;82.20;;;;;;5074324;28;20199;-68
2024/02/28 07:58:45;;;;;;;24.40;16.08;;;8.20;82.40;;;;;;5074046;28;20656;-68
2024/02/28 08:01:12;;;;;;;23.08;18.75;;;8.20;82.70;;;;;;5074278;28;20210;-68
2024/02/28 08:03:41;;;;;;;21.45;17.70;;;8.10;83.80;;;;;;5073705;28;20193;-68
2024/02/28 08:06:08;;;;;;;24.13;17.48;;;8.10;84.50;;;;;;5073816;28;20228;-68
2024/02/28 08:08:35;;;;;;;22.95;16.45;;;8.10;84.90;;;;;;5073790;28;20190;-68
2024/02/28 08:11:03;;;;;;;26.45;17.30;;;8.10;85.20;;;;;;5073866;28;20285;-68
2024/02/28 08:13:30;;;;;;;22.13;17.17;;;8.00;85.70;;;;;;5073748;28;20668;-68
2024/02/28 08:15:57;;;;;;;21.27;16.92;;;8.10;85.40;;;;;;5073706;28;20716;-68
2024/02/28 08:18:24;;;;;;;29.88;18.73;;;8.10;85.30;;;;;;5074109;28;20248;-68
2024/02/28 08:20:53;;;;;;;24.92;17.60;;;8.10;85.90;;;;;;5073609;28;20292;-68
2024/02/28 08:23:20;;;;;;;20.33;16.60;;;8.10;86.20;;;;;;5074209;28;20226;-68
2024/02/28 08:25:47;;;;;;;19.83;15.63;;;8.20;86.10;;;;;;5073763;28;20227;-68
2024/02/28 08:28:13;;;;;;;25.63;17.58;;;8.20;86.30;;;;;;5073513;28;20281;-68
2024/02/28 08:30:40;;;;;;;25.42;17.52;;;8.20;86.30;;;;;;5073689;28;20681;-68
2024/02/28 08:33:08;;;;;;;28.27;18.92;;;8.30;86.40;;;;;;5073550;28;20253;-68
2024/02/28 08:35:35;;;;;;;29.33;19.45;;;8.30;85.90;;;;;;5073774;28;20281;-68
2024/02/28 08:38:04;;;;;;;30.60;20.02;;;8.40;85.50;;;;;;5073705;28;20285;-68
2024/02/28 08:40:31;;;;;;;30.65;18.88;;;8.40;85.80;;;;;;5073545;28;20302;-68
2024/02/28 08:42:58;;;;;;;31.25;18.48;;;8.40;85.50;;;;;;5073365;28;20251;-68
2024/02/28 08:45:25;;;;;;;28.10;17.50;;;8.50;85.70;;;;;;5073308;28;20532;-68
2024/02/28 08:47:53;;;;;;;34.67;19.33;;;8.50;86.10;;;;;;5073552;28;20218;-68
2024/02/28 08:50:20;;;;;;;31.73;19.92;;;8.50;86.40;;;;;;5073719;28;20195;-68
2024/02/28 08:52:47;;;;;;;34.22;20.73;;;8.50;86.50;;;;;;5073567;28;20194;-68
2024/02/28 08:55:18;;;;;;;28.08;18.95;;;8.60;86.60;;;;;;5073440;28;20642;-68
2024/02/28 08:57:45;;;;;;;35.58;20.50;;;8.60;86.50;;;;;;5073790;28;20587;-68
2024/02/28 09:00:15;;;;;;;27.50;19.73;;;8.60;86.20;;;;;;5072990;28;20190;-68
2024/02/28 09:02:42;;;;;;;36.35;21.50;;;8.70;86.50;;;;;;5073055;28;20190;-68
2024/02/28 09:05:10;;;;;;;36.33;23.88;;;8.70;86.10;;;;;;5073356;28;20276;-68
2024/02/28 09:07:37;;;;;;;30.55;19.65;;;8.80;86.30;;;;;;5073286;28;20190;-68
2024/02/28 09:10:08;;;;;;;29.02;19.25;;;8.80;85.80;;;;;;5073249;28;20230;-68
2024/02/28 09:12:36;;;;;;;29.98;20.45;;;8.80;85.80;;;;;;5073283;28;20221;-68
2024/02/28 09:15:04;;;;;;;37.58;23.38;;;8.80;85.60;;;;;;5073181;28;20201;-68
2024/02/28 09:17:31;;;;;;;33.50;22.48;;;8.80;86.00;;;;;;5072545;28;20190;-68
2024/02/28 09:20:00;;;;;;;40.50;24.10;;;8.80;85.70;;;;;;5073300;28;20568;-68
2024/02/28 09:22:27;;;;;;;37.65;22.50;;;8.80;85.70;;;;;;5072778;28;20745;-68
2024/02/28 09:24:54;;;;;;;38.33;23.08;;;8.80;86.10;;;;;;5072842;28;20715;-68
2024/02/28 09:27:21;;;;;;;40.42;24.00;;;8.90;85.80;;;;;;5073103;28;20230;-68
2024/02/28 09:29:49;;;;;;;40.30;23.10;;;8.90;85.10;;;;;;5073140;28;20255;-68
2024/02/28 09:32:18;;;;;;;33.70;22.60;;;8.90;85.50;;;;;;5073046;28;20281;-68
2024/02/28 09:34:45;;;;;;;40.80;24.65;;;8.90;85.50;;;;;;5073083;28;20335;-68
2024/02/28 09:37:12;;;;;;;38.47;23.35;;;8.90;85.60;;;;;;5072773;28;20244;-68
2024/02/28 09:39:39;;;;;;;42.97;26.38;;;8.90;85.60;;;;;;5073288;28;20194;-68
2024/02/28 09:42:07;;;;;;;35.00;23.02;;;8.90;85.60;;;;;;5072619;28;20230;-68
2024/02/28 09:44:35;;;;;;;44.28;25.55;;;8.90;85.60;;;;;;5073046;28;20586;-68
2024/02/28 09:47:04;;;;;;;42.08;23.63;;;8.90;85.90;;;;;;5072683;28;20194;-68
2024/02/28 09:49:33;;;;;;;45.30;25.13;;;9.00;85.80;;;;;;5072955;28;20277;-68
2024/02/28 09:52:00;;;;;;;44.30;26.13;;;9.00;85.90;;;;;;5072526;28;20255;-68
2024/02/28 09:54:27;;;;;;;44.03;25.13;;;9.00;85.70;;;;;;5072551;28;20190;-68
2024/02/28 09:56:55;;;;;;;42.85;26.88;;;9.00;85.60;;;;;;5072526;28;20286;-68
2024/02/28 09:59:25;;;;;;;47.55;26.10;;;9.00;85.60;;;;;;5072557;28;20735;-68
2024/02/28 10:01:57;;;;;;;43.00;27.25;;;9.10;85.60;;;;;;5072430;28;20296;-68
2024/02/28 10:04:27;;;;;;;44.78;27.67;;;9.10;85.50;;;;;;5072427;28;20217;-68
2024/02/28 10:06:54;;;;;;;42.33;24.40;;;9.20;85.30;;;;;;5072868;28;20518;-68
2024/02/28 10:09:21;;;;;;;42.45;24.08;;;9.20;84.90;;;;;;5072492;28;20197;-68
2024/02/28 10:11:48;;;;;;;41.67;22.95;;;9.20;84.50;;;;;;5072377;28;20252;-68
2024/02/28 10:14:19;;;;;;;41.17;24.10;;;9.20;84.20;;;;;;5072347;28;20695;-68
2024/02/28 10:16:46;;;;;;;43.00;25.60;;;9.30;83.70;;;;;;5072337;28;20175;-68
2024/02/28 10:19:13;;;;;;;41.72;25.50;;;9.20;83.50;;;;;;5072716;28;20285;-68
2024/02/28 10:21:42;;;;;;;38.95;24.05;;;9.30;83.50;;;;;;5072648;28;20656;-68
2024/02/28 10:24:12;;;;;;;40.72;25.70;;;9.30;83.60;;;;;;5072627;28;20241;-68
2024/02/28 10:26:48;;;;;;;42.05;26.40;;;9.30;83.80;;;;;;5072279;28;20205;-68
2024/02/28 10:29:14;;;;;;;44.00;25.95;;;9.30;84.30;;;;;;5076287;28;20194;-68
2024/02/28 10:31:45;;;;;;;38.10;24.45;;;9.40;84.40;;;;;;5075757;28;20640;-68
2024/02/28 10:34:13;;;;;;;38.20;24.13;;;9.40;84.50;;;;;;5076012;28;20232;-68
2024/02/28 10:36:42;;;;;;;39.63;23.38;;;9.50;84.30;;;;;;5075736;28;20675;-68
2024/02/28 10:39:10;;;;;;;41.90;23.38;;;9.60;83.30;;;;;;5076008;28;20251;-68
2024/02/28 10:41:39;;;;;;;42.38;24.20;;;9.60;83.90;;;;;;5075825;28;20234;-68
2024/02/28 10:44:06;;;;;;;36.85;23.05;;;9.60;82.90;;;;;;5075609;28;20240;-68
2024/02/28 10:46:33;;;;;;;39.63;23.90;;;9.70;83.00;;;;;;5075497;28;20278;-68
2024/02/28 10:48:59;;;;;;;39.88;23.15;;;9.70;82.90;;;;;;5075719;28;20194;-68
2024/02/28 10:51:26;;;;;;;41.67;26.23;;;9.80;82.40;;;;;;5075793;28;20207;-68
2024/02/28 10:54:05;;;;;;;40.83;24.45;;;9.80;82.00;;;;;;5075761;28;20519;-68
2024/02/28 10:56:33;;;;;;;39.05;23.20;;;9.90;81.00;;;;;;5075821;28;20593;-68
2024/02/28 10:59:01;;;;;;;34.88;21.20;;;9.90;80.90;;;;;;5075738;28;20252;-68
2024/02/28 11:01:28;;;;;;;40.00;25.88;;;9.90;80.70;;;;;;5075354;28;20567;-68
2024/02/28 11:03:57;;;;;;;35.00;24.00;;;9.90;80.50;;;;;;5075193;28;20293;-68
2024/02/28 11:06:24;;;;;;;41.85;25.75;;;9.90;80.50;;;;;;5075350;28;20189;-68
2024/02/28 11:08:54;;;;;;;39.90;24.90;;;9.90;80.90;;;;;;5075093;28;20330;-68
2024/02/28 11:11:22;;;;;;;40.65;23.85;;;9.90;80.70;;;;;;5075697;28;20194;-68
2024/02/28 11:13:55;;;;;;;45.05;24.27;;;10.00;78.40;;;;;;5075008;28;20288;-68
2024/02/28 11:16:29;;;;;;;34.60;23.73;;;10.00;77.70;;;;;;5075215;28;20232;-68
2024/02/28 11:18:58;;;;;;;34.33;21.48;;;10.00;77.30;;;;;;5075154;28;20276;-68
2024/02/28 11:21:26;;;;;;;36.63;23.38;;;10.00;76.80;;;;;;5075073;28;20221;-68
2024/02/28 11:23:57;;;;;;;37.60;24.27;;;10.00;77.00;;;;;;5074782;28;20186;-68
2024/02/28 11:26:27;;;;;;;37.30;23.30;;;10.00;77.30;;;;;;5075194;28;20323;-68
2024/02/28 11:28:54;;;;;;;38.25;24.05;;;10.10;76.90;;;;;;5075101;28;20272;-68
2024/02/28 11:31:22;;;;;;;39.03;23.02;;;10.10;76.80;;;;;;5074955;28;20288;-68
2024/02/28 11:33:49;;;;;;;41.80;22.92;;;10.10;76.60;;;;;;5074864;28;20609;-68
2024/02/28 11:36:16;;;;;;;43.25;25.23;;;10.20;76.70;;;;;;5074531;28;20281;-68
2024/02/28 11:38:43;;;;;;;35.55;23.00;;;10.20;76.80;;;;;;5074243;28;20273;-68
2024/02/28 11:41:10;;;;;;;37.47;23.85;;;10.20;76.90;;;;;;5074133;28;20267;-68
2024/02/28 11:43:38;;;;;;;40.22;24.92;;;10.20;77.20;;;;;;5074513;28;20228;-68
2024/02/28 11:46:10;;;;;;;40.38;25.45;;;10.20;77.30;;;;;;5074424;28;20230;-68
2024/02/28 11:48:37;;;;;;;37.55;23.70;;;10.30;76.90;;;;;;5074610;28;20605;-68
2024/02/28 11:51:04;;;;;;;34.10;22.85;;;10.30;76.50;;;;;;5074271;28;20683;-68
2024/02/28 11:53:31;;;;;;;39.85;24.52;;;10.40;76.30;;;;;;5074512;28;20273;-68
2024/02/28 11:55:58;;;;;;;41.60;24.10;;;10.40;76.00;;;;;;5074056;28;20277;-68
2024/02/28 11:58:25;;;;;;;35.28;23.58;;;10.40;75.50;;;;;;5074148;28;20281;-68
2024/02/28 12:00:55;;;;;;;46.03;24.40;;;10.40;75.20;;;;;;5074354;28;20277;-68
2024/02/28 12:03:23;;;;;;;36.30;24.38;;;10.40;75.30;;;;;;5074265;28;20191;-67
2024/02/28 12:05:50;;;;;;;33.97;24.40;;;10.50;75.00;;;;;;5074270;28;20281;-68
2024/02/28 12:08:20;;;;;;;34.45;23.33;;;10.50;74.90;;;;;;5074140;28;20206;-68
2024/02/28 12:10:47;;;;;;;35.58;21.92;;;10.50;74.80;;;;;;5073522;28;20193;-68
2024/02/28 12:13:18;;;;;;;32.03;21.27;;;10.50;74.20;;;;;;5073635;28;20278;-68
2024/02/28 12:15:45;;;;;;;33.58;23.38;;;10.60;74.30;;;;;;5074221;28;20599;-68
2024/02/28 12:18:15;;;;;;;34.65;23.48;;;10.60;74.40;;;;;;5074587;28;20186;-68
2024/02/28 12:20:42;;;;;;;33.40;22.40;;;10.60;73.60;;;;;;5073278;28;20181;-68
2024/02/28 12:23:10;;;;;;;33.97;23.42;;;10.70;73.10;;;;;;5073096;28;20308;-68
2024/02/28 12:25:37;;;;;;;38.17;23.73;;;10.70;73.00;;;;;;5073975;28;20540;-68
2024/02/28 12:28:06;;;;;;;33.22;21.35;;;10.70;72.70;;;;;;5071021;28;20396;-68
2024/02/28 12:30:41;;;;;;;34.35;24.73;;;10.70;72.30;;;;;;5073067;28;20230;-68
2024/02/28 12:33:08;;;;;;;31.75;21.73;;;10.70;72.60;;;;;;5073229;28;20217;-68
2024/02/28 12:35:37;;;;;;;35.28;21.42;;;10.70;72.40;;;;;;5084681;28;20193;-68
2024/02/28 12:38:04;;;;;;;33.17;23.45;;;10.70;71.80;;;;;;5093909;28;20193;-68
2024/02/28 12:40:31;;;;;;;36.50;22.98;;;10.70;71.70;;;;;;5085095;28;20278;-68